createdAt,value
2018-04-12T00:01:51.377Z,5.00
2018-04-12T00:04:18.956Z,5.00
2018-04-12T00:06:46.633Z,5.20
2018-04-12T00:09:14.449Z,5.43
2018-04-12T00:11:42.488Z,5.10
2018-04-12T00:14:10.095Z,4.97
2018-04-12T00:16:37.806Z,6.13
2018-04-12T00:19:05.448Z,6.00
2018-04-12T00:21:33.018Z,6.00
2018-04-12T00:24:00.671Z,5.00
2018-04-12T00:26:28.335Z,5.20
2018-04-12T00:28:55.944Z,5.60
2018-04-12T00:31:23.509Z,5.60
2018-04-12T00:33:51.079Z,5.73
2018-04-12T00:36:18.710Z,5.83
2018-04-12T00:38:46.439Z,5.20
2018-04-12T00:41:14.050Z,4.57
2018-04-12T00:43:41.637Z,5.70
2018-04-12T00:46:09.369Z,6.20
2018-04-12T00:48:36.954Z,5.67
2018-04-12T00:51:04.661Z,5.60
2018-04-12T00:53:44.099Z,5.07
2018-04-12T00:56:11.790Z,5.60
2018-04-12T00:58:39.454Z,5.07
2018-04-12T01:01:07.096Z,5.10
2018-04-12T01:03:34.777Z,5.17
2018-04-12T01:06:02.441Z,5.07
2018-04-12T01:08:30.090Z,5.50
2018-04-12T01:10:57.792Z,5.50
2018-04-12T01:13:25.332Z,5.17
2018-04-12T01:15:52.903Z,5.20
2018-04-12T01:18:20.438Z,5.17
2018-04-12T01:20:48.187Z,5.20
2018-04-12T01:23:15.928Z,4.63
2018-04-12T01:25:43.461Z,5.30
2018-04-12T01:28:11.027Z,5.20
2018-04-12T01:30:38.549Z,6.27
2018-04-12T01:33:16.907Z,5.93
2018-04-12T01:35:44.532Z,5.80
2018-04-12T01:38:12.302Z,7.10
2018-04-12T01:40:39.926Z,5.50
2018-04-12T01:43:07.476Z,5.33
2018-04-12T01:45:35.143Z,4.47
2018-04-12T01:48:02.785Z,4.93
2018-04-12T01:50:30.405Z,4.50
2018-04-12T01:52:58.115Z,5.63
2018-04-12T01:55:25.826Z,5.47
2018-04-12T01:57:53.386Z,4.60
2018-04-12T02:00:21.047Z,5.50
2018-04-12T02:02:48.912Z,5.83
2018-04-12T02:05:16.700Z,6.20
2018-04-12T02:07:44.256Z,5.80
2018-04-12T02:10:11.842Z,6.40
2018-04-12T02:12:39.363Z,5.70
2018-04-12T02:15:06.877Z,5.40
2018-04-12T02:17:34.596Z,5.77
2018-04-12T02:20:02.356Z,5.53
2018-04-12T02:22:29.997Z,5.17
2018-04-12T02:24:57.644Z,5.60
2018-04-12T02:27:25.386Z,5.10
2018-04-12T02:29:53.183Z,5.20
2018-04-12T02:32:20.817Z,5.67
2018-04-12T02:34:48.466Z,5.60
2018-04-12T02:37:16.288Z,5.30
2018-04-12T02:39:43.918Z,4.53
2018-04-12T02:42:11.665Z,4.43
2018-04-12T02:44:39.409Z,4.57
2018-04-12T02:47:07.033Z,4.93
2018-04-12T02:49:34.568Z,5.67
2018-04-12T02:52:02.288Z,5.10
2018-04-12T02:54:29.827Z,5.97
2018-04-12T02:56:57.439Z,5.00
2018-04-12T02:59:25.213Z,4.93
2018-04-12T03:01:52.885Z,5.27
2018-04-12T03:04:20.643Z,5.53
2018-04-12T03:06:48.322Z,4.73
2018-04-12T03:09:16.000Z,5.33
2018-04-12T03:11:43.724Z,5.17
2018-04-12T03:14:11.463Z,4.67
2018-04-12T03:16:39.058Z,5.70
2018-04-12T03:19:06.702Z,5.43
2018-04-12T03:21:34.373Z,5.50
2018-04-12T03:24:02.197Z,6.73
2018-04-12T03:26:29.908Z,6.10
2018-04-12T03:28:57.726Z,5.13
2018-04-12T03:31:25.330Z,4.80
2018-04-12T03:33:53.031Z,5.60
2018-04-12T03:36:20.659Z,4.47
2018-04-12T03:38:48.383Z,5.77
2018-04-12T03:41:16.022Z,5.00
2018-04-12T03:43:43.828Z,6.10
2018-04-12T03:46:11.373Z,5.60
2018-04-12T03:48:39.035Z,4.83
2018-04-12T03:51:06.678Z,5.37
2018-04-12T03:53:36.094Z,4.43
2018-04-12T03:56:03.664Z,5.13
2018-04-12T03:58:31.422Z,5.00
2018-04-12T04:01:03.088Z,6.50
2018-04-12T04:03:32.083Z,5.20
2018-04-12T04:05:59.747Z,5.10
2018-04-12T04:08:27.341Z,4.80
2018-04-12T04:10:54.982Z,6.07
2018-04-12T04:13:23.039Z,5.63
2018-04-12T04:16:02.673Z,6.13
2018-04-12T04:18:42.313Z,6.83
2018-04-12T04:21:10.092Z,5.83
2018-04-12T04:23:38.701Z,5.40
2018-04-12T04:26:06.734Z,5.60
2018-04-12T04:28:34.657Z,5.33
2018-04-12T04:31:02.438Z,5.87
2018-04-12T04:33:30.079Z,11.93
2018-04-12T04:35:57.717Z,9.13
2018-04-12T04:38:25.625Z,6.03
2018-04-12T04:40:53.464Z,5.87
2018-04-12T04:43:21.223Z,6.00
2018-04-12T04:45:48.901Z,6.77
2018-04-12T04:48:16.710Z,6.83
2018-04-12T04:50:44.613Z,5.30
2018-04-12T04:53:12.325Z,7.13
2018-04-12T04:55:40.072Z,6.53
2018-04-12T04:58:07.676Z,6.80
2018-04-12T05:00:35.462Z,7.47
2018-04-12T05:03:03.380Z,11.23
2018-04-12T05:05:31.240Z,7.30
2018-04-12T05:07:59.114Z,6.80
2018-04-12T05:10:26.958Z,7.47
2018-04-12T05:12:54.726Z,6.90
2018-04-12T05:15:22.742Z,6.23
2018-04-12T05:17:50.348Z,6.67
2018-04-12T05:20:18.098Z,7.47
2018-04-12T05:22:45.822Z,6.97
2018-04-12T05:25:13.968Z,5.93
2018-04-12T05:27:41.603Z,7.53
2018-04-12T05:30:09.424Z,8.50
2018-04-12T05:32:37.264Z,6.37
2018-04-12T05:35:05.122Z,7.33
2018-04-12T05:37:33.599Z,6.43
2018-04-12T05:40:01.421Z,6.00
2018-04-12T05:42:29.222Z,6.47
2018-04-12T05:44:56.838Z,5.67
2018-04-12T05:47:24.952Z,6.27
2018-04-12T05:49:52.754Z,5.20
2018-04-12T05:52:20.384Z,6.27
2018-04-12T05:54:48.192Z,21.43
2018-04-12T05:57:15.857Z,6.60
2018-04-12T05:59:43.922Z,6.67
2018-04-12T06:02:11.586Z,6.10
2018-04-12T06:04:39.672Z,6.20
2018-04-12T06:07:07.440Z,6.07
2018-04-12T06:09:35.022Z,6.10
2018-04-12T06:12:02.650Z,6.43
2018-04-12T06:14:30.464Z,7.23
2018-04-12T06:16:58.155Z,6.53
2018-04-12T06:19:26.538Z,6.40
2018-04-12T06:21:54.158Z,6.40
2018-04-12T06:24:21.897Z,6.40
2018-04-12T06:26:49.754Z,6.30
2018-04-12T06:29:17.458Z,6.20
2018-04-12T06:31:45.214Z,7.10
2018-04-12T06:34:12.894Z,6.83
2018-04-12T06:36:40.580Z,7.07
2018-04-12T06:39:08.586Z,8.10
2018-04-12T06:41:36.456Z,6.70
2018-04-12T06:44:04.570Z,6.53
2018-04-12T06:46:32.327Z,6.50
2018-04-12T06:48:59.889Z,6.13
2018-04-12T06:51:27.644Z,7.20
2018-04-12T06:53:55.261Z,6.53
2018-04-12T06:56:22.872Z,6.80
2018-04-12T06:58:50.719Z,7.80
2018-04-12T07:01:18.513Z,7.30
2018-04-12T07:03:46.251Z,7.80
2018-04-12T07:06:13.893Z,7.50
2018-04-12T07:08:41.536Z,7.80
2018-04-12T07:11:09.463Z,7.30
2018-04-12T07:13:37.307Z,7.13
2018-04-12T07:16:05.208Z,7.07
2018-04-12T07:18:32.998Z,7.27
2018-04-12T07:21:00.888Z,7.70
2018-04-12T07:23:28.527Z,7.40
2018-04-12T07:25:56.393Z,7.00
2018-04-12T07:28:24.257Z,7.90
2018-04-12T07:30:51.985Z,7.33
2018-04-12T07:33:19.745Z,8.37
2018-04-12T07:35:47.517Z,8.00
2018-04-12T07:38:15.243Z,7.93
2018-04-12T07:40:42.966Z,7.73
2018-04-12T07:43:10.990Z,8.07
2018-04-12T07:45:39.026Z,8.33
2018-04-12T07:48:06.941Z,8.60
2018-04-12T07:50:35.016Z,7.87
2018-04-12T07:53:02.901Z,8.57
2018-04-12T07:55:31.084Z,8.63
2018-04-12T07:57:58.817Z,8.83
2018-04-12T08:00:27.183Z,8.53
2018-04-12T08:02:55.055Z,7.10
2018-04-12T08:05:22.875Z,7.83
2018-04-12T08:07:50.609Z,7.73
2018-04-12T08:10:18.471Z,8.50
2018-04-12T08:12:46.146Z,7.40
2018-04-12T08:15:14.068Z,7.53
2018-04-12T08:17:41.873Z,7.63
2018-04-12T08:20:09.598Z,7.00
2018-04-12T08:22:37.323Z,6.70
2018-04-12T08:25:05.063Z,7.50
2018-04-12T08:27:32.863Z,7.57
2018-04-12T08:30:00.684Z,7.53
2018-04-12T08:32:28.450Z,7.90
2018-04-12T08:34:56.128Z,7.53
2018-04-12T08:37:23.903Z,6.60
2018-04-12T08:39:51.498Z,6.60
2018-04-12T08:42:19.209Z,6.13
2018-04-12T08:44:46.863Z,7.00
2018-04-12T08:47:14.579Z,6.13
2018-04-12T08:49:42.289Z,7.37
2018-04-12T08:52:10.320Z,6.37
2018-04-12T08:54:38.026Z,7.33
2018-04-12T08:57:05.834Z,6.07
2018-04-12T08:59:33.468Z,6.00
2018-04-12T09:02:01.013Z,6.30
2018-04-12T09:04:28.626Z,6.57
2018-04-12T09:06:56.288Z,6.83
2018-04-12T09:09:24.063Z,6.70
2018-04-12T09:11:51.819Z,7.33
2018-04-12T09:14:19.629Z,6.60
2018-04-12T09:16:47.229Z,6.63
2018-04-12T09:19:14.774Z,6.63
2018-04-12T09:21:42.390Z,8.07
2018-04-12T09:24:10.255Z,7.43
2018-04-12T09:26:38.184Z,7.90
2018-04-12T09:29:05.913Z,6.93
2018-04-12T09:31:33.575Z,7.33
2018-04-12T09:34:01.325Z,7.20
2018-04-12T09:36:29.168Z,6.87
2018-04-12T09:38:56.810Z,6.30
2018-04-12T09:41:24.445Z,7.53
2018-04-12T09:43:52.666Z,8.07
2018-04-12T09:46:20.321Z,6.30
2018-04-12T09:48:48.002Z,5.73
2018-04-12T09:51:15.619Z,5.93
2018-04-12T09:53:43.387Z,5.23
2018-04-12T09:56:11.011Z,5.20
2018-04-12T09:58:38.714Z,4.07
2018-04-12T10:01:14.986Z,1.90
2018-04-12T10:03:44.473Z,1.60
2018-04-12T10:06:17.886Z,1.67
2018-04-12T10:08:51.151Z,1.83
2018-04-12T10:11:18.759Z,1.40
2018-04-12T10:13:46.365Z,1.90
2018-04-12T10:16:14.055Z,1.67
2018-04-12T10:18:41.735Z,1.30
2018-04-12T10:21:09.326Z,1.17
2018-04-12T10:23:36.956Z,1.17
2018-04-12T10:26:04.707Z,1.00
2018-04-12T10:28:32.404Z,1.80
2018-04-12T10:31:00.175Z,1.20
2018-04-12T10:33:27.889Z,1.43
2018-04-12T10:35:55.545Z,2.00
2018-04-12T10:38:23.150Z,1.70
2018-04-12T10:40:50.976Z,1.60
2018-04-12T10:43:18.600Z,2.10
2018-04-12T10:45:46.510Z,1.43
2018-04-12T10:48:14.081Z,1.80
2018-04-12T10:50:41.822Z,1.30
2018-04-12T10:53:09.502Z,1.47
2018-04-12T10:55:37.066Z,1.70
2018-04-12T10:58:04.689Z,0.83
2018-04-12T11:00:32.477Z,1.10
2018-04-12T11:03:00.130Z,1.03
2018-04-12T11:05:27.795Z,0.70
2018-04-12T11:07:55.429Z,0.87
2018-04-12T11:10:23.012Z,1.33
2018-04-12T11:12:50.935Z,0.60
2018-04-12T11:15:18.821Z,0.60
2018-04-12T11:17:46.530Z,0.80
2018-04-12T11:20:14.209Z,0.80
2018-04-12T11:22:42.019Z,0.90
2018-04-12T11:25:09.654Z,0.70
2018-04-12T11:27:37.394Z,0.70
2018-04-12T11:30:05.044Z,1.43
2018-04-12T11:32:32.604Z,0.70
2018-04-12T11:35:00.382Z,0.60
2018-04-12T11:37:28.178Z,0.63
2018-04-12T11:39:55.899Z,0.60
2018-04-12T11:42:23.454Z,0.60
2018-04-12T11:44:51.389Z,0.90
2018-04-12T11:47:19.079Z,0.80
2018-04-12T11:49:46.845Z,0.60
2018-04-12T11:52:14.785Z,0.70
2018-04-12T11:54:42.317Z,0.87
2018-04-12T11:57:10.101Z,0.80
2018-04-12T11:59:37.724Z,0.80
2018-04-12T12:02:05.471Z,0.80
2018-04-12T12:04:33.129Z,0.67
2018-04-12T12:07:00.725Z,0.73
2018-04-12T12:09:28.379Z,1.00
2018-04-12T12:11:56.050Z,0.70
2018-04-12T12:14:23.754Z,1.00
2018-04-12T12:16:51.584Z,0.90
2018-04-12T12:19:19.359Z,0.70
2018-04-12T12:21:47.006Z,0.93
2018-04-12T12:24:14.620Z,1.20
2018-04-12T12:26:42.661Z,1.13
2018-04-12T12:29:10.944Z,0.80
2018-04-12T12:31:39.657Z,0.80
2018-04-12T12:34:07.342Z,1.20
2018-04-12T12:36:35.376Z,0.87
2018-04-12T12:39:03.859Z,0.90
2018-04-12T12:41:31.570Z,1.00
2018-04-12T12:43:59.398Z,0.93
2018-04-12T12:46:28.354Z,0.90
2018-04-12T12:48:56.230Z,0.87
2018-04-12T12:51:23.938Z,0.83
2018-04-12T12:53:51.721Z,1.00
2018-04-12T12:56:19.437Z,0.80
2018-04-12T12:58:47.106Z,1.00
2018-04-12T13:01:14.687Z,1.37
2018-04-12T13:03:42.369Z,0.97
2018-04-12T13:06:10.106Z,1.20
2018-04-12T13:08:37.776Z,0.70
2018-04-12T13:11:05.468Z,1.40
2018-04-12T13:13:33.281Z,0.77
2018-04-12T13:16:01.503Z,1.10
2018-04-12T13:18:29.132Z,2.90
2018-04-12T13:20:56.796Z,1.37
2018-04-12T13:23:24.464Z,0.90
2018-04-12T13:25:52.195Z,0.80
2018-04-12T13:28:20.080Z,0.50
2018-04-12T13:30:47.682Z,0.70
2018-04-12T13:33:15.395Z,0.50
2018-04-12T13:35:43.072Z,0.43
2018-04-12T13:38:10.756Z,1.27
2018-04-12T13:40:38.506Z,0.87
2018-04-12T13:43:06.035Z,0.47
2018-04-12T13:45:33.695Z,0.60
2018-04-12T13:51:31.556Z,0.57
2018-04-12T13:53:59.096Z,0.60
2018-04-12T13:56:26.804Z,0.60
2018-04-12T13:58:54.667Z,0.87
2018-04-12T14:01:22.521Z,0.60
2018-04-12T14:03:50.057Z,0.70
2018-04-12T14:06:17.590Z,0.50
2018-04-12T14:08:46.288Z,0.50
2018-04-12T14:11:14.167Z,0.70
2018-04-12T14:13:41.872Z,0.50
2018-04-12T14:16:09.647Z,0.60
2018-04-12T14:18:37.373Z,0.50
2018-04-12T14:21:05.171Z,0.70
2018-04-12T14:23:32.864Z,0.50
2018-04-12T14:26:00.635Z,0.60
2018-04-12T14:28:28.649Z,0.50
2018-04-12T14:30:56.876Z,0.67
2018-04-12T14:33:24.534Z,0.60
2018-04-12T14:35:52.410Z,0.87
2018-04-12T14:38:20.285Z,0.67
2018-04-12T14:40:48.595Z,0.53
2018-04-12T14:43:16.765Z,0.67
2018-04-12T14:45:44.652Z,0.67
2018-04-12T14:48:12.811Z,0.80
2018-04-12T14:50:40.904Z,0.60
2018-04-12T14:53:09.047Z,0.50
2018-04-12T14:55:37.074Z,0.50
2018-04-12T14:58:05.499Z,0.50
2018-04-12T15:00:33.881Z,0.70
2018-04-12T15:03:02.073Z,0.50
2018-04-12T15:05:29.733Z,0.40
2018-04-12T15:07:57.417Z,0.40
2018-04-12T15:10:25.068Z,0.40
2018-04-12T15:12:52.803Z,0.50
2018-04-12T15:15:20.795Z,0.60
2018-04-12T15:17:48.759Z,1.30
2018-04-12T15:20:16.677Z,0.67
2018-04-12T15:22:44.295Z,1.00
2018-04-12T15:25:12.034Z,1.03
2018-04-12T15:27:40.003Z,0.77
2018-04-12T15:30:07.959Z,0.53
2018-04-12T15:32:35.710Z,0.50
2018-04-12T15:35:03.624Z,0.90
2018-04-12T15:37:31.326Z,0.57
2018-04-12T15:39:59.280Z,0.43
2018-04-12T15:42:26.869Z,0.60
2018-04-12T15:44:54.620Z,0.50
2018-04-12T15:47:22.502Z,0.60
2018-04-12T15:49:50.346Z,0.63
2018-04-12T15:52:18.290Z,0.57
2018-04-12T15:54:45.801Z,0.50
2018-04-12T15:57:13.562Z,0.53
2018-04-12T15:59:41.105Z,1.30
2018-04-12T16:02:08.922Z,0.50
2018-04-12T16:04:36.595Z,0.70
2018-04-12T16:07:04.298Z,1.00
2018-04-12T16:09:31.954Z,0.50
2018-04-12T16:11:59.720Z,0.47
2018-04-12T16:14:27.599Z,0.73
2018-04-12T16:16:55.341Z,0.70
2018-04-12T16:19:23.059Z,1.03
2018-04-12T16:21:50.739Z,0.70
2018-04-12T16:24:18.550Z,0.70
2018-04-12T16:26:46.307Z,0.50
2018-04-12T16:29:14.047Z,0.70
2018-04-12T16:31:41.676Z,0.53
2018-04-12T16:34:09.387Z,0.80
2018-04-12T16:36:37.065Z,0.60
2018-04-12T16:39:06.824Z,0.53
2018-04-12T16:41:34.390Z,0.63
2018-04-12T16:44:02.088Z,0.70
2018-04-12T16:46:29.881Z,0.90
2018-04-12T16:48:57.987Z,0.70
2018-04-12T16:51:26.143Z,0.53
2018-04-12T16:53:53.960Z,0.60
2018-04-12T16:56:22.083Z,0.40
2018-04-12T16:58:50.399Z,0.50
2018-04-12T17:01:18.698Z,0.83
2018-04-12T17:03:46.922Z,0.50
2018-04-12T17:06:15.068Z,0.73
2018-04-12T17:08:43.966Z,0.53
2018-04-12T17:11:11.952Z,0.70
2018-04-12T17:13:39.604Z,0.70
2018-04-12T17:16:07.822Z,0.60
2018-04-12T17:18:35.462Z,0.60
2018-04-12T17:21:03.232Z,0.60
2018-04-12T17:23:31.084Z,0.50
2018-04-12T17:25:58.773Z,0.57
2018-04-12T17:28:26.557Z,0.70
2018-04-12T17:30:54.333Z,0.80
2018-04-12T17:33:22.083Z,0.70
2018-04-12T17:35:49.822Z,1.07
2018-04-12T17:38:17.548Z,0.77
2018-04-12T17:40:45.237Z,0.57
2018-04-12T17:43:12.927Z,0.50
2018-04-12T17:45:40.813Z,0.60
2018-04-12T17:48:08.663Z,1.17
2018-04-12T17:50:36.384Z,0.80
2018-04-12T17:53:04.321Z,0.80
2018-04-12T17:55:32.118Z,0.60
2018-04-12T17:57:59.945Z,0.80
2018-04-12T18:00:27.756Z,0.53
2018-04-12T18:02:55.534Z,0.60
2018-04-12T18:05:23.237Z,1.00
2018-04-12T18:07:51.007Z,0.70
2018-04-12T18:10:18.794Z,28.00
2018-04-12T18:12:46.552Z,1.03
2018-04-12T18:15:14.239Z,0.70
2018-04-12T18:17:41.852Z,0.70
2018-04-12T18:20:09.654Z,0.70
2018-04-12T18:22:37.447Z,0.83
2018-04-12T18:25:05.324Z,0.90
2018-04-12T18:27:32.903Z,0.73
2018-04-12T18:30:00.492Z,0.87
2018-04-12T18:32:28.203Z,0.80
2018-04-12T18:34:55.907Z,1.23
2018-04-12T18:37:23.869Z,2.40
2018-04-12T18:39:51.422Z,1.23
2018-04-12T18:42:19.023Z,1.20
2018-04-12T18:44:46.868Z,1.43
2018-04-12T18:47:14.824Z,1.30
2018-04-12T18:49:42.588Z,1.13
2018-04-12T18:52:10.166Z,3.00
2018-04-12T18:54:37.845Z,1.50
2018-04-12T18:57:05.519Z,0.90
2018-04-12T18:59:33.322Z,1.00
2018-04-12T19:02:01.117Z,1.70
2018-04-12T19:04:28.875Z,1.10
2018-04-12T19:06:56.718Z,1.80
2018-04-12T19:09:24.395Z,1.30
2018-04-12T19:11:52.765Z,1.10
2018-04-12T19:14:20.460Z,1.00
2018-04-12T19:16:48.180Z,1.10
2018-04-12T19:19:15.934Z,1.30
2018-04-12T19:21:43.729Z,1.00
2018-04-12T19:24:11.477Z,0.97
2018-04-12T19:26:39.148Z,1.40
2018-04-12T19:29:06.849Z,0.70
2018-04-12T19:31:34.640Z,0.80
2018-04-12T19:34:02.234Z,0.80
2018-04-12T19:36:30.012Z,1.20
2018-04-12T19:38:57.727Z,0.80
2018-04-12T19:41:25.626Z,1.03
2018-04-12T19:43:53.623Z,1.17
2018-04-12T19:46:21.523Z,1.30
2018-04-12T19:48:49.146Z,0.97
2018-04-12T19:51:16.779Z,1.20
2018-04-12T19:53:44.518Z,1.17
2018-04-12T19:56:12.304Z,1.27
2018-04-12T19:58:39.917Z,1.47
2018-04-12T20:01:07.744Z,1.43
2018-04-12T20:03:35.361Z,1.80
2018-04-12T20:06:03.044Z,1.20
2018-04-12T20:08:30.837Z,1.10
2018-04-12T20:10:58.556Z,1.90
2018-04-12T20:13:26.307Z,1.50
2018-04-12T20:15:54.154Z,1.60
2018-04-12T20:18:21.903Z,1.40
2018-04-12T20:20:49.534Z,1.13
2018-04-12T20:23:17.227Z,1.63
2018-04-12T20:25:44.934Z,1.27
2018-04-12T20:28:12.590Z,1.20
2018-04-12T20:30:40.259Z,1.17
2018-04-12T20:33:08.008Z,2.00
2018-04-12T20:35:35.702Z,1.93
2018-04-12T20:38:03.253Z,1.67
2018-04-12T20:40:31.218Z,1.43
2018-04-12T20:42:59.033Z,1.00
2018-04-12T20:45:26.841Z,1.30
2018-04-12T20:47:54.714Z,1.50
2018-04-12T20:50:22.477Z,1.80
2018-04-12T20:52:50.110Z,2.17
2018-04-12T20:55:17.844Z,2.10
2018-04-12T20:57:45.518Z,2.60
2018-04-12T21:00:13.301Z,3.50
2018-04-12T21:02:40.916Z,3.37
2018-04-12T21:05:08.782Z,2.93
2018-04-12T21:07:36.424Z,3.30
2018-04-12T21:10:04.189Z,3.53
2018-04-12T21:12:31.819Z,2.93
2018-04-12T21:14:59.565Z,3.10
2018-04-12T21:17:27.227Z,5.00
2018-04-12T21:19:55.121Z,2.60
2018-04-12T21:22:22.873Z,2.20
2018-04-12T21:24:50.532Z,2.10
2018-04-12T21:27:18.269Z,2.17
2018-04-12T21:29:45.887Z,1.73
2018-04-12T21:32:13.647Z,1.17
2018-04-12T21:34:41.468Z,1.40
2018-04-12T21:37:09.059Z,1.30
2018-04-12T21:39:36.815Z,1.63
2018-04-12T21:42:04.375Z,1.33
2018-04-12T21:44:32.110Z,1.23
2018-04-12T21:46:59.783Z,1.60
2018-04-12T21:49:27.585Z,1.37
2018-04-12T21:51:55.180Z,1.43
2018-04-12T21:54:22.749Z,1.43
2018-04-12T21:56:50.499Z,1.60
2018-04-12T21:59:18.278Z,1.70
2018-04-12T22:01:46.009Z,1.73
2018-04-12T22:04:13.545Z,1.40
2018-04-12T22:06:41.152Z,1.47
2018-04-12T22:09:08.959Z,1.80
2018-04-12T22:11:36.655Z,1.80
2018-04-12T22:14:04.549Z,1.50
2018-04-12T22:16:32.282Z,1.70
2018-04-12T22:18:59.848Z,1.30
2018-04-12T22:21:27.649Z,1.83
2018-04-12T22:23:55.268Z,1.90
2018-04-12T22:26:22.847Z,1.57
2018-04-12T22:28:50.671Z,1.67
2018-04-12T22:31:18.526Z,1.60
2018-04-12T22:33:46.067Z,2.13
2018-04-12T22:36:13.708Z,2.00
2018-04-12T22:38:41.408Z,1.20
2018-04-12T22:41:09.123Z,1.33
2018-04-12T22:43:36.859Z,1.07
2018-04-12T22:46:04.470Z,1.50
2018-04-12T22:48:32.330Z,1.90
2018-04-12T22:51:00.100Z,1.03
2018-04-12T22:53:27.915Z,1.20
2018-04-12T22:55:55.508Z,2.10
2018-04-12T22:58:23.271Z,1.30
2018-04-12T23:00:52.059Z,1.20
2018-04-12T23:03:19.832Z,1.20
2018-04-12T23:05:47.730Z,1.70
2018-04-12T23:08:15.474Z,1.20
2018-04-12T23:10:43.275Z,1.30
2018-04-12T23:23:14.210Z,1.13
2018-04-12T23:25:41.874Z,1.33
2018-04-12T23:28:09.544Z,1.00
2018-04-12T23:30:37.783Z,0.80
2018-04-12T23:33:05.519Z,1.10
2018-04-12T23:35:33.183Z,1.40
2018-04-12T23:38:00.935Z,1.03
2018-04-12T23:40:28.615Z,1.17
2018-04-12T23:42:56.298Z,1.20
2018-04-12T23:45:23.905Z,1.17
2018-04-12T23:47:51.654Z,1.30
2018-04-12T23:50:19.238Z,1.37
2018-04-12T23:52:46.889Z,1.50
2018-04-12T23:55:14.671Z,1.77
2018-04-12T23:57:42.574Z,1.00
